sensor_id;sensor_type;location;lat;lon;timestamp;P1;durP1;ratioP1;P2;durP2;ratioP2
37595;SDS011;23442;48.182;11.552;2022-10-16T00:00:37;4.77;;;2.70;;
37595;SDS011;23442;48.182;11.552;2022-10-16T00:03:05;4.70;;;2.72;;
37595;SDS011;23442;48.182;11.552;2022-10-16T00:05:32;4.53;;;2.50;;
37595;SDS011;23442;48.182;11.552;2022-10-16T00:08:02;4.33;;;2.43;;
37595;SDS011;23442;48.182;11.552;2022-10-16T00:10:28;5.93;;;2.47;;
37595;SDS011;23442;48.182;11.552;2022-10-16T00:12:54;5.63;;;2.67;;
37595;SDS011;23442;48.182;11.552;2022-10-16T00:15:20;4.87;;;2.37;;
37595;SDS011;23442;48.182;11.552;2022-10-16T00:17:47;5.17;;;2.50;;
37595;SDS011;23442;48.182;11.552;2022-10-16T00:20:13;5.50;;;2.35;;
37595;SDS011;23442;48.182;11.552;2022-10-16T00:22:39;7.17;;;2.80;;
37595;SDS011;23442;48.182;11.552;2022-10-16T00:25:05;5.32;;;2.47;;
37595;SDS011;23442;48.182;11.552;2022-10-16T00:27:32;4.33;;;2.30;;
37595;SDS011;23442;48.182;11.552;2022-10-16T00:29:58;7.37;;;2.83;;
37595;SDS011;23442;48.182;11.552;2022-10-16T00:32:24;5.77;;;2.80;;
37595;SDS011;23442;48.182;11.552;2022-10-16T00:34:51;4.77;;;2.47;;
37595;SDS011;23442;48.182;11.552;2022-10-16T00:37:19;6.05;;;2.20;;
37595;SDS011;23442;48.182;11.552;2022-10-16T00:39:45;5.23;;;2.30;;
37595;SDS011;23442;48.182;11.552;2022-10-16T00:42:14;7.13;;;2.77;;
37595;SDS011;23442;48.182;11.552;2022-10-16T00:50:01;6.03;;;2.10;;
37595;SDS011;23442;48.182;11.552;2022-10-16T00:52:57;6.40;;;2.20;;
37595;SDS011;23442;48.182;11.552;2022-10-16T00:55:25;6.30;;;2.53;;
37595;SDS011;23442;48.182;11.552;2022-10-16T00:57:53;11.48;;;3.05;;
37595;SDS011;23442;48.182;11.552;2022-10-16T01:00:21;7.43;;;2.87;;
37595;SDS011;23442;48.182;11.552;2022-10-16T01:02:53;2.77;;;1.80;;
37595;SDS011;23442;48.182;11.552;2022-10-16T01:05:22;4.40;;;2.40;;
37595;SDS011;23442;48.182;11.552;2022-10-16T01:07:56;6.47;;;2.27;;
37595;SDS011;23442;48.182;11.552;2022-10-16T01:10:45;4.27;;;2.33;;
37595;SDS011;23442;48.182;11.552;2022-10-16T01:13:46;3.07;;;1.87;;
37595;SDS011;23442;48.182;11.552;2022-10-16T01:17:03;5.30;;;2.37;;
37595;SDS011;23442;48.182;11.552;2022-10-16T01:22:28;5.53;;;2.60;;
37595;SDS011;23442;48.182;11.552;2022-10-16T01:25:14;4.70;;;2.40;;
37595;SDS011;23442;48.182;11.552;2022-10-16T01:27:50;4.40;;;2.17;;
37595;SDS011;23442;48.182;11.552;2022-10-16T01:30:21;6.23;;;2.60;;
37595;SDS011;23442;48.182;11.552;2022-10-16T01:32:56;4.23;;;2.10;;
37595;SDS011;23442;48.182;11.552;2022-10-16T01:35:53;6.53;;;2.57;;
37595;SDS011;23442;48.182;11.552;2022-10-16T01:38:34;5.57;;;2.17;;
37595;SDS011;23442;48.182;11.552;2022-10-16T01:41:08;4.27;;;2.10;;
37595;SDS011;23442;48.182;11.552;2022-10-16T01:43:40;4.47;;;2.40;;
37595;SDS011;23442;48.182;11.552;2022-10-16T01:46:13;4.57;;;2.20;;
37595;SDS011;23442;48.182;11.552;2022-10-16T01:48:42;2.80;;;1.63;;
37595;SDS011;23442;48.182;11.552;2022-10-16T01:51:08;4.33;;;2.10;;
37595;SDS011;23442;48.182;11.552;2022-10-16T01:53:38;3.78;;;2.15;;
37595;SDS011;23442;48.182;11.552;2022-10-16T01:56:06;2.97;;;1.70;;
37595;SDS011;23442;48.182;11.552;2022-10-16T01:58:35;4.27;;;2.30;;
37595;SDS011;23442;48.182;11.552;2022-10-16T02:01:06;4.73;;;2.17;;
37595;SDS011;23442;48.182;11.552;2022-10-16T02:03:34;4.20;;;2.30;;
37595;SDS011;23442;48.182;11.552;2022-10-16T02:06:02;3.97;;;1.90;;
37595;SDS011;23442;48.182;11.552;2022-10-16T02:08:29;6.82;;;2.55;;
37595;SDS011;23442;48.182;11.552;2022-10-16T02:10:57;2.55;;;1.77;;
37595;SDS011;23442;48.182;11.552;2022-10-16T02:13:33;4.28;;;2.10;;
37595;SDS011;23442;48.182;11.552;2022-10-16T02:16:15;4.70;;;2.30;;
37595;SDS011;23442;48.182;11.552;2022-10-16T02:18:41;4.25;;;2.20;;
37595;SDS011;23442;48.182;11.552;2022-10-16T02:21:25;3.90;;;2.00;;
37595;SDS011;23442;48.182;11.552;2022-10-16T02:29:43;5.30;;;2.00;;
37595;SDS011;23442;48.182;11.552;2022-10-16T02:32:23;8.53;;;2.10;;
37595;SDS011;23442;48.182;11.552;2022-10-16T02:34:52;1.93;;;1.57;;
37595;SDS011;23442;48.182;11.552;2022-10-16T02:37:18;5.85;;;2.63;;
37595;SDS011;23442;48.182;11.552;2022-10-16T02:39:45;5.23;;;1.90;;
37595;SDS011;23442;48.182;11.552;2022-10-16T02:42:12;5.97;;;2.30;;
37595;SDS011;23442;48.182;11.552;2022-10-16T02:44:39;3.60;;;1.80;;
37595;SDS011;23442;48.182;11.552;2022-10-16T02:47:05;4.77;;;2.27;;
37595;SDS011;23442;48.182;11.552;2022-10-16T02:49:31;3.87;;;2.00;;
37595;SDS011;23442;48.182;11.552;2022-10-16T02:51:57;5.07;;;1.70;;
37595;SDS011;23442;48.182;11.552;2022-10-16T02:54:23;1.73;;;1.40;;
37595;SDS011;23442;48.182;11.552;2022-10-16T02:56:49;5.20;;;2.43;;
37595;SDS011;23442;48.182;11.552;2022-10-16T02:59:16;4.27;;;2.00;;
37595;SDS011;23442;48.182;11.552;2022-10-16T03:01:43;4.73;;;1.83;;
37595;SDS011;23442;48.182;11.552;2022-10-16T03:04:09;6.20;;;2.37;;
37595;SDS011;23442;48.182;11.552;2022-10-16T03:06:35;4.40;;;2.30;;
37595;SDS011;23442;48.182;11.552;2022-10-16T03:09:01;4.00;;;2.00;;
37595;SDS011;23442;48.182;11.552;2022-10-16T03:11:27;4.93;;;2.20;;
37595;SDS011;23442;48.182;11.552;2022-10-16T03:13:53;3.70;;;2.00;;
37595;SDS011;23442;48.182;11.552;2022-10-16T03:16:20;3.97;;;1.90;;
37595;SDS011;23442;48.182;11.552;2022-10-16T03:18:49;3.33;;;1.80;;
37595;SDS011;23442;48.182;11.552;2022-10-16T03:21:15;4.50;;;1.88;;
37595;SDS011;23442;48.182;11.552;2022-10-16T03:23:41;4.80;;;2.00;;
37595;SDS011;23442;48.182;11.552;2022-10-16T03:26:07;4.43;;;2.00;;
37595;SDS011;23442;48.182;11.552;2022-10-16T03:28:33;4.13;;;1.90;;
37595;SDS011;23442;48.182;11.552;2022-10-16T03:31:00;4.00;;;2.00;;
37595;SDS011;23442;48.182;11.552;2022-10-16T03:33:25;5.85;;;2.30;;
37595;SDS011;23442;48.182;11.552;2022-10-16T03:35:52;5.40;;;1.73;;
37595;SDS011;23442;48.182;11.552;2022-10-16T03:38:19;3.43;;;1.80;;
37595;SDS011;23442;48.182;11.552;2022-10-16T03:40:46;4.83;;;2.07;;
37595;SDS011;23442;48.182;11.552;2022-10-16T03:43:12;6.32;;;2.13;;
37595;SDS011;23442;48.182;11.552;2022-10-16T03:45:38;4.63;;;1.98;;
37595;SDS011;23442;48.182;11.552;2022-10-16T03:48:05;3.87;;;1.80;;
37595;SDS011;23442;48.182;11.552;2022-10-16T03:50:31;2.72;;;1.27;;
37595;SDS011;23442;48.182;11.552;2022-10-16T03:52:57;1.97;;;1.43;;
37595;SDS011;23442;48.182;11.552;2022-10-16T03:55:23;4.80;;;1.90;;
37595;SDS011;23442;48.182;11.552;2022-10-16T03:57:49;4.07;;;1.80;;
37595;SDS011;23442;48.182;11.552;2022-10-16T04:00:15;3.70;;;1.98;;
37595;SDS011;23442;48.182;11.552;2022-10-16T04:02:42;3.97;;;1.93;;
37595;SDS011;23442;48.182;11.552;2022-10-16T04:05:08;3.67;;;1.87;;
37595;SDS011;23442;48.182;11.552;2022-10-16T04:07:34;4.20;;;2.10;;
37595;SDS011;23442;48.182;11.552;2022-10-16T04:10:01;4.33;;;2.10;;
37595;SDS011;23442;48.182;11.552;2022-10-16T04:12:27;8.57;;;2.27;;
37595;SDS011;23442;48.182;11.552;2022-10-16T04:14:53;3.57;;;1.80;;
37595;SDS011;23442;48.182;11.552;2022-10-16T04:17:19;5.10;;;2.07;;
37595;SDS011;23442;48.182;11.552;2022-10-16T04:19:45;5.85;;;2.00;;
37595;SDS011;23442;48.182;11.552;2022-10-16T04:22:11;5.37;;;2.23;;
37595;SDS011;23442;48.182;11.552;2022-10-16T04:24:38;4.07;;;2.20;;
37595;SDS011;23442;48.182;11.552;2022-10-16T04:27:04;3.53;;;2.22;;
37595;SDS011;23442;48.182;11.552;2022-10-16T04:29:30;4.20;;;1.93;;
37595;SDS011;23442;48.182;11.552;2022-10-16T04:31:56;2.87;;;1.67;;
37595;SDS011;23442;48.182;11.552;2022-10-16T04:34:22;2.95;;;1.48;;
37595;SDS011;23442;48.182;11.552;2022-10-16T04:36:48;3.90;;;1.87;;
37595;SDS011;23442;48.182;11.552;2022-10-16T04:39:15;4.97;;;2.10;;
37595;SDS011;23442;48.182;11.552;2022-10-16T04:41:41;3.67;;;2.03;;
37595;SDS011;23442;48.182;11.552;2022-10-16T04:44:07;4.00;;;1.90;;
37595;SDS011;23442;48.182;11.552;2022-10-16T04:46:33;4.28;;;1.63;;
37595;SDS011;23442;48.182;11.552;2022-10-16T04:49:00;4.53;;;2.00;;
37595;SDS011;23442;48.182;11.552;2022-10-16T04:51:26;4.67;;;2.17;;
37595;SDS011;23442;48.182;11.552;2022-10-16T04:53:53;3.93;;;1.80;;
37595;SDS011;23442;48.182;11.552;2022-10-16T04:56:20;2.63;;;1.60;;
37595;SDS011;23442;48.182;11.552;2022-10-16T04:58:46;3.50;;;1.60;;
37595;SDS011;23442;48.182;11.552;2022-10-16T05:01:13;2.70;;;1.30;;
37595;SDS011;23442;48.182;11.552;2022-10-16T05:03:39;4.97;;;2.10;;
37595;SDS011;23442;48.182;11.552;2022-10-16T05:06:05;3.77;;;1.90;;
37595;SDS011;23442;48.182;11.552;2022-10-16T05:08:32;3.22;;;1.80;;
37595;SDS011;23442;48.182;11.552;2022-10-16T05:10:58;3.47;;;2.00;;
37595;SDS011;23442;48.182;11.552;2022-10-16T05:13:25;3.88;;;2.00;;
37595;SDS011;23442;48.182;11.552;2022-10-16T05:15:51;2.93;;;1.93;;
37595;SDS011;23442;48.182;11.552;2022-10-16T05:18:17;2.50;;;1.63;;
37595;SDS011;23442;48.182;11.552;2022-10-16T05:20:43;4.67;;;1.60;;
37595;SDS011;23442;48.182;11.552;2022-10-16T05:23:09;5.65;;;2.30;;
37595;SDS011;23442;48.182;11.552;2022-10-16T05:25:36;2.97;;;1.90;;
37595;SDS011;23442;48.182;11.552;2022-10-16T05:28:02;5.30;;;2.27;;
37595;SDS011;23442;48.182;11.552;2022-10-16T05:30:29;6.03;;;2.20;;
37595;SDS011;23442;48.182;11.552;2022-10-16T05:32:55;3.77;;;1.97;;
37595;SDS011;23442;48.182;11.552;2022-10-16T05:35:21;5.07;;;2.20;;
37595;SDS011;23442;48.182;11.552;2022-10-16T05:37:47;4.77;;;2.27;;
37595;SDS011;23442;48.182;11.552;2022-10-16T05:40:14;5.37;;;2.20;;
37595;SDS011;23442;48.182;11.552;2022-10-16T05:42:41;5.57;;;2.20;;
37595;SDS011;23442;48.182;11.552;2022-10-16T05:45:08;7.03;;;2.37;;
37595;SDS011;23442;48.182;11.552;2022-10-16T05:47:37;3.80;;;1.80;;
37595;SDS011;23442;48.182;11.552;2022-10-16T05:50:03;6.27;;;2.30;;
37595;SDS011;23442;48.182;11.552;2022-10-16T05:52:29;5.43;;;2.20;;
37595;SDS011;23442;48.182;11.552;2022-10-16T05:54:55;7.00;;;2.37;;
37595;SDS011;23442;48.182;11.552;2022-10-16T05:57:22;5.40;;;2.27;;
37595;SDS011;23442;48.182;11.552;2022-10-16T05:59:48;4.22;;;2.05;;
37595;SDS011;23442;48.182;11.552;2022-10-16T06:02:14;5.47;;;2.20;;
37595;SDS011;23442;48.182;11.552;2022-10-16T06:04:40;6.13;;;2.22;;
37595;SDS011;23442;48.182;11.552;2022-10-16T06:07:07;5.13;;;2.40;;
37595;SDS011;23442;48.182;11.552;2022-10-16T06:09:33;5.40;;;2.43;;
37595;SDS011;23442;48.182;11.552;2022-10-16T06:11:59;5.67;;;2.40;;
37595;SDS011;23442;48.182;11.552;2022-10-16T06:14:25;6.60;;;2.50;;
37595;SDS011;23442;48.182;11.552;2022-10-16T06:16:51;5.83;;;2.80;;
37595;SDS011;23442;48.182;11.552;2022-10-16T06:19:17;7.50;;;2.70;;
37595;SDS011;23442;48.182;11.552;2022-10-16T06:21:44;7.73;;;2.60;;
37595;SDS011;23442;48.182;11.552;2022-10-16T06:24:10;6.50;;;2.63;;
37595;SDS011;23442;48.182;11.552;2022-10-16T06:26:37;8.70;;;3.50;;
37595;SDS011;23442;48.182;11.552;2022-10-16T06:29:03;7.33;;;2.53;;
37595;SDS011;23442;48.182;11.552;2022-10-16T06:31:29;6.17;;;2.50;;
37595;SDS011;23442;48.182;11.552;2022-10-16T06:33:58;5.70;;;2.60;;
37595;SDS011;23442;48.182;11.552;2022-10-16T06:36:24;6.53;;;2.80;;
37595;SDS011;23442;48.182;11.552;2022-10-16T06:38:50;6.37;;;2.50;;
37595;SDS011;23442;48.182;11.552;2022-10-16T06:41:18;6.33;;;2.90;;
37595;SDS011;23442;48.182;11.552;2022-10-16T06:43:46;9.80;;;2.97;;
37595;SDS011;23442;48.182;11.552;2022-10-16T06:46:13;7.23;;;2.70;;
37595;SDS011;23442;48.182;11.552;2022-10-16T06:48:41;6.63;;;2.80;;
37595;SDS011;23442;48.182;11.552;2022-10-16T06:53:41;3.83;;;2.40;;
37595;SDS011;23442;48.182;11.552;2022-10-16T06:58:36;6.27;;;2.50;;
37595;SDS011;23442;48.182;11.552;2022-10-16T07:01:03;7.37;;;2.80;;
37595;SDS011;23442;48.182;11.552;2022-10-16T07:03:29;5.83;;;2.60;;
37595;SDS011;23442;48.182;11.552;2022-10-16T07:05:55;6.80;;;2.90;;
37595;SDS011;23442;48.182;11.552;2022-10-16T07:08:22;5.57;;;2.70;;
37595;SDS011;23442;48.182;11.552;2022-10-16T07:10:48;5.57;;;2.67;;
37595;SDS011;23442;48.182;11.552;2022-10-16T07:13:22;5.00;;;2.50;;
37595;SDS011;23442;48.182;11.552;2022-10-16T07:15:48;5.77;;;2.63;;
37595;SDS011;23442;48.182;11.552;2022-10-16T07:18:14;7.93;;;3.00;;
37595;SDS011;23442;48.182;11.552;2022-10-16T07:20:41;5.00;;;2.57;;
37595;SDS011;23442;48.182;11.552;2022-10-16T07:23:07;5.50;;;2.50;;
37595;SDS011;23442;48.182;11.552;2022-10-16T07:25:33;6.53;;;2.67;;
37595;SDS011;23442;48.182;11.552;2022-10-16T07:27:59;5.17;;;2.47;;
37595;SDS011;23442;48.182;11.552;2022-10-16T07:30:25;5.47;;;2.13;;
37595;SDS011;23442;48.182;11.552;2022-10-16T07:32:51;6.93;;;3.00;;
37595;SDS011;23442;48.182;11.552;2022-10-16T07:35:17;6.13;;;2.53;;
37595;SDS011;23442;48.182;11.552;2022-10-16T07:37:44;5.83;;;2.70;;
37595;SDS011;23442;48.182;11.552;2022-10-16T07:40:11;6.27;;;2.80;;
37595;SDS011;23442;48.182;11.552;2022-10-16T07:42:37;6.70;;;3.30;;
37595;SDS011;23442;48.182;11.552;2022-10-16T07:45:04;8.23;;;2.97;;
37595;SDS011;23442;48.182;11.552;2022-10-16T07:47:30;6.70;;;2.90;;
37595;SDS011;23442;48.182;11.552;2022-10-16T07:49:56;8.05;;;3.20;;
37595;SDS011;23442;48.182;11.552;2022-10-16T07:52:22;6.57;;;3.07;;
37595;SDS011;23442;48.182;11.552;2022-10-16T07:54:48;5.57;;;2.88;;
37595;SDS011;23442;48.182;11.552;2022-10-16T07:57:14;6.17;;;3.07;;
37595;SDS011;23442;48.182;11.552;2022-10-16T07:59:44;6.80;;;3.53;;
37595;SDS011;23442;48.182;11.552;2022-10-16T08:02:11;5.13;;;3.10;;
37595;SDS011;23442;48.182;11.552;2022-10-16T08:04:37;8.17;;;3.73;;
37595;SDS011;23442;48.182;11.552;2022-10-16T08:07:03;11.75;;;4.43;;
37595;SDS011;23442;48.182;11.552;2022-10-16T08:09:29;6.82;;;3.20;;
37595;SDS011;23442;48.182;11.552;2022-10-16T08:11:55;6.75;;;3.03;;
37595;SDS011;23442;48.182;11.552;2022-10-16T08:14:21;6.43;;;3.37;;
37595;SDS011;23442;48.182;11.552;2022-10-16T08:16:48;5.93;;;3.28;;
37595;SDS011;23442;48.182;11.552;2022-10-16T08:19:14;8.23;;;3.10;;
37595;SDS011;23442;48.182;11.552;2022-10-16T08:21:40;7.00;;;3.20;;
37595;SDS011;23442;48.182;11.552;2022-10-16T08:24:06;6.75;;;3.25;;
37595;SDS011;23442;48.182;11.552;2022-10-16T08:26:33;7.18;;;3.38;;
37595;SDS011;23442;48.182;11.552;2022-10-16T08:28:59;7.15;;;3.25;;
37595;SDS011;23442;48.182;11.552;2022-10-16T08:31:25;6.90;;;3.75;;
37595;SDS011;23442;48.182;11.552;2022-10-16T08:33:52;6.65;;;3.42;;
37595;SDS011;23442;48.182;11.552;2022-10-16T08:36:18;5.88;;;2.90;;
37595;SDS011;23442;48.182;11.552;2022-10-16T08:38:47;5.35;;;2.95;;
37595;SDS011;23442;48.182;11.552;2022-10-16T08:41:20;6.30;;;2.92;;
37595;SDS011;23442;48.182;11.552;2022-10-16T08:44:21;5.72;;;2.95;;
37595;SDS011;23442;48.182;11.552;2022-10-16T08:49:31;8.65;;;2.88;;
37595;SDS011;23442;48.182;11.552;2022-10-16T08:51:57;5.40;;;2.78;;
37595;SDS011;23442;48.182;11.552;2022-10-16T08:54:32;6.70;;;2.72;;
37595;SDS011;23442;48.182;11.552;2022-10-16T08:57:09;6.68;;;2.78;;
37595;SDS011;23442;48.182;11.552;2022-10-16T08:59:45;4.47;;;2.50;;
37595;SDS011;23442;48.182;11.552;2022-10-16T09:13:18;6.20;;;3.42;;
37595;SDS011;23442;48.182;11.552;2022-10-16T09:16:01;6.30;;;3.92;;
37595;SDS011;23442;48.182;11.552;2022-10-16T09:21:33;5.68;;;3.58;;
37595;SDS011;23442;48.182;11.552;2022-10-16T09:24:09;7.03;;;4.30;;
37595;SDS011;23442;48.182;11.552;2022-10-16T09:26:42;7.20;;;4.50;;
37595;SDS011;23442;48.182;11.552;2022-10-16T09:29:12;6.43;;;3.53;;
37595;SDS011;23442;48.182;11.552;2022-10-16T09:31:40;6.75;;;3.00;;
37595;SDS011;23442;48.182;11.552;2022-10-16T09:34:08;6.63;;;3.13;;
37595;SDS011;23442;48.182;11.552;2022-10-16T09:36:46;6.90;;;3.30;;
37595;SDS011;23442;48.182;11.552;2022-10-16T09:39:12;6.35;;;2.80;;
37595;SDS011;23442;48.182;11.552;2022-10-16T09:41:42;5.20;;;2.72;;
37595;SDS011;23442;48.182;11.552;2022-10-16T09:52:19;5.75;;;3.13;;
37595;SDS011;23442;48.182;11.552;2022-10-16T09:54:52;6.43;;;3.58;;
37595;SDS011;23442;48.182;11.552;2022-10-16T09:57:20;5.90;;;3.20;;
37595;SDS011;23442;48.182;11.552;2022-10-16T09:59:51;7.38;;;3.10;;
37595;SDS011;23442;48.182;11.552;2022-10-16T10:02:29;5.03;;;2.80;;
37595;SDS011;23442;48.182;11.552;2022-10-16T10:04:56;4.20;;;2.70;;
37595;SDS011;23442;48.182;11.552;2022-10-16T10:07:24;5.28;;;3.00;;
37595;SDS011;23442;48.182;11.552;2022-10-16T10:09:52;5.57;;;2.70;;
37595;SDS011;23442;48.182;11.552;2022-10-16T10:12:24;7.22;;;2.90;;
37595;SDS011;23442;48.182;11.552;2022-10-16T10:14:58;4.38;;;2.72;;
37595;SDS011;23442;48.182;11.552;2022-10-16T10:17:30;5.25;;;2.90;;
37595;SDS011;23442;48.182;11.552;2022-10-16T10:19:58;6.53;;;3.90;;
37595;SDS011;23442;48.182;11.552;2022-10-16T10:33:49;5.95;;;3.60;;
37595;SDS011;23442;48.182;11.552;2022-10-16T10:36:27;7.65;;;3.00;;
37595;SDS011;23442;48.182;11.552;2022-10-16T10:39:07;7.20;;;2.88;;
37595;SDS011;23442;48.182;11.552;2022-10-16T10:41:59;5.55;;;2.30;;
37595;SDS011;23442;48.182;11.552;2022-10-16T10:50:33;5.75;;;2.20;;
37595;SDS011;23442;48.182;11.552;2022-10-16T10:59:18;3.35;;;2.03;;
37595;SDS011;23442;48.182;11.552;2022-10-16T11:10:25;5.45;;;2.40;;
37595;SDS011;23442;48.182;11.552;2022-10-16T11:12:55;4.63;;;2.50;;
37595;SDS011;23442;48.182;11.552;2022-10-16T11:15:48;6.05;;;2.53;;
37595;SDS011;23442;48.182;11.552;2022-10-16T11:18:24;6.57;;;3.00;;
37595;SDS011;23442;48.182;11.552;2022-10-16T11:21:14;5.28;;;2.22;;
37595;SDS011;23442;48.182;11.552;2022-10-16T11:23:43;5.75;;;2.10;;
37595;SDS011;23442;48.182;11.552;2022-10-16T11:26:13;3.63;;;1.95;;
37595;SDS011;23442;48.182;11.552;2022-10-16T11:28:51;5.90;;;3.15;;
37595;SDS011;23442;48.182;11.552;2022-10-16T11:31:35;5.30;;;2.30;;
37595;SDS011;23442;48.182;11.552;2022-10-16T11:34:04;6.22;;;2.67;;
37595;SDS011;23442;48.182;11.552;2022-10-16T11:36:47;4.07;;;2.10;;
37595;SDS011;23442;48.182;11.552;2022-10-16T11:39:34;4.90;;;2.15;;
37595;SDS011;23442;48.182;11.552;2022-10-16T11:56:23;6.28;;;2.08;;
37595;SDS011;23442;48.182;11.552;2022-10-16T11:59:01;4.10;;;1.88;;
37595;SDS011;23442;48.182;11.552;2022-10-16T12:05:06;5.30;;;2.75;;
37595;SDS011;23442;48.182;11.552;2022-10-16T12:10:34;3.45;;;1.95;;
37595;SDS011;23442;48.182;11.552;2022-10-16T12:13:48;5.05;;;2.10;;
37595;SDS011;23442;48.182;11.552;2022-10-16T12:18:40;5.45;;;2.17;;
37595;SDS011;23442;48.182;11.552;2022-10-16T12:21:07;5.05;;;1.83;;
37595;SDS011;23442;48.182;11.552;2022-10-16T12:23:38;5.05;;;2.33;;
37595;SDS011;23442;48.182;11.552;2022-10-16T12:26:13;6.28;;;2.28;;
37595;SDS011;23442;48.182;11.552;2022-10-16T12:28:49;5.05;;;2.42;;
37595;SDS011;23442;48.182;11.552;2022-10-16T12:31:16;5.63;;;2.20;;
37595;SDS011;23442;48.182;11.552;2022-10-16T12:33:53;3.83;;;1.98;;
37595;SDS011;23442;48.182;11.552;2022-10-16T12:36:33;4.57;;;2.50;;
37595;SDS011;23442;48.182;11.552;2022-10-16T12:39:00;4.82;;;2.10;;
37595;SDS011;23442;48.182;11.552;2022-10-16T12:41:33;4.47;;;2.40;;
37595;SDS011;23442;48.182;11.552;2022-10-16T12:44:02;5.13;;;2.10;;
37595;SDS011;23442;48.182;11.552;2022-10-16T12:51:52;4.03;;;2.20;;
37595;SDS011;23442;48.182;11.552;2022-10-16T12:54:25;5.70;;;2.08;;
37595;SDS011;23442;48.182;11.552;2022-10-16T12:57:20;5.53;;;2.47;;
37595;SDS011;23442;48.182;11.552;2022-10-16T13:00:44;3.10;;;1.55;;
37595;SDS011;23442;48.182;11.552;2022-10-16T13:06:22;3.28;;;1.30;;
37595;SDS011;23442;48.182;11.552;2022-10-16T13:09:07;5.07;;;1.75;;
37595;SDS011;23442;48.182;11.552;2022-10-16T13:16:06;4.35;;;1.65;;
37595;SDS011;23442;48.182;11.552;2022-10-16T13:21:43;5.50;;;1.98;;
37595;SDS011;23442;48.182;11.552;2022-10-16T13:24:14;4.55;;;1.88;;
37595;SDS011;23442;48.182;11.552;2022-10-16T13:27:06;4.38;;;2.08;;
37595;SDS011;23442;48.182;11.552;2022-10-16T13:30:00;4.53;;;1.65;;
37595;SDS011;23442;48.182;11.552;2022-10-16T13:33:03;5.15;;;2.58;;
37595;SDS011;23442;48.182;11.552;2022-10-16T13:35:46;4.50;;;1.88;;
37595;SDS011;23442;48.182;11.552;2022-10-16T13:38:25;4.85;;;1.98;;
37595;SDS011;23442;48.182;11.552;2022-10-16T13:41:00;4.70;;;2.08;;
37595;SDS011;23442;48.182;11.552;2022-10-16T13:43:46;5.80;;;2.35;;
37595;SDS011;23442;48.182;11.552;2022-10-16T13:48:44;5.93;;;2.25;;
37595;SDS011;23442;48.182;11.552;2022-10-16T13:51:22;3.05;;;1.42;;
37595;SDS011;23442;48.182;11.552;2022-10-16T13:53:48;6.03;;;3.15;;
37595;SDS011;23442;48.182;11.552;2022-10-16T13:56:18;8.38;;;4.05;;
37595;SDS011;23442;48.182;11.552;2022-10-16T13:58:46;3.63;;;1.73;;
37595;SDS011;23442;48.182;11.552;2022-10-16T14:01:23;2.15;;;1.20;;
37595;SDS011;23442;48.182;11.552;2022-10-16T14:03:59;4.78;;;1.95;;
37595;SDS011;23442;48.182;11.552;2022-10-16T14:06:31;6.72;;;2.70;;
37595;SDS011;23442;48.182;11.552;2022-10-16T14:11:53;3.53;;;1.92;;
37595;SDS011;23442;48.182;11.552;2022-10-16T14:14:32;3.17;;;1.92;;
37595;SDS011;23442;48.182;11.552;2022-10-16T14:17:06;3.90;;;1.92;;
37595;SDS011;23442;48.182;11.552;2022-10-16T14:19:38;3.83;;;1.23;;
37595;SDS011;23442;48.182;11.552;2022-10-16T14:22:20;3.60;;;1.42;;
37595;SDS011;23442;48.182;11.552;2022-10-16T14:27:45;4.82;;;2.30;;
37595;SDS011;23442;48.182;11.552;2022-10-16T14:30:23;2.95;;;1.63;;
37595;SDS011;23442;48.182;11.552;2022-10-16T14:35:57;3.83;;;2.10;;
37595;SDS011;23442;48.182;11.552;2022-10-16T14:38:31;5.28;;;2.00;;
37595;SDS011;23442;48.182;11.552;2022-10-16T14:40:58;3.75;;;1.60;;
37595;SDS011;23442;48.182;11.552;2022-10-16T14:46:18;6.65;;;2.78;;
37595;SDS011;23442;48.182;11.552;2022-10-16T14:48:50;3.95;;;1.70;;
37595;SDS011;23442;48.182;11.552;2022-10-16T14:51:25;4.00;;;1.80;;
37595;SDS011;23442;48.182;11.552;2022-10-16T14:53:51;4.40;;;1.85;;
37595;SDS011;23442;48.182;11.552;2022-10-16T14:56:18;4.90;;;2.38;;
37595;SDS011;23442;48.182;11.552;2022-10-16T14:58:47;7.72;;;3.05;;
37595;SDS011;23442;48.182;11.552;2022-10-16T15:01:14;4.15;;;2.13;;
37595;SDS011;23442;48.182;11.552;2022-10-16T15:03:40;3.50;;;1.90;;
37595;SDS011;23442;48.182;11.552;2022-10-16T15:06:16;3.08;;;1.55;;
37595;SDS011;23442;48.182;11.552;2022-10-16T15:08:42;3.88;;;2.00;;
37595;SDS011;23442;48.182;11.552;2022-10-16T15:11:10;4.35;;;2.30;;
37595;SDS011;23442;48.182;11.552;2022-10-16T15:13:38;5.75;;;2.50;;
37595;SDS011;23442;48.182;11.552;2022-10-16T15:16:04;4.88;;;2.22;;
37595;SDS011;23442;48.182;11.552;2022-10-16T15:18:34;4.43;;;2.17;;
37595;SDS011;23442;48.182;11.552;2022-10-16T15:21:00;3.78;;;2.10;;
37595;SDS011;23442;48.182;11.552;2022-10-16T15:23:27;7.63;;;6.55;;
37595;SDS011;23442;48.182;11.552;2022-10-16T15:25:54;4.20;;;2.17;;
37595;SDS011;23442;48.182;11.552;2022-10-16T15:28:21;3.55;;;1.70;;
37595;SDS011;23442;48.182;11.552;2022-10-16T15:30:53;7.57;;;2.40;;
37595;SDS011;23442;48.182;11.552;2022-10-16T15:33:25;3.53;;;1.83;;
37595;SDS011;23442;48.182;11.552;2022-10-16T15:35:53;7.85;;;2.92;;
37595;SDS011;23442;48.182;11.552;2022-10-16T15:38:20;5.82;;;2.80;;
37595;SDS011;23442;48.182;11.552;2022-10-16T15:40:48;2.67;;;1.50;;
37595;SDS011;23442;48.182;11.552;2022-10-16T15:43:14;5.65;;;2.05;;
37595;SDS011;23442;48.182;11.552;2022-10-16T15:45:40;4.28;;;2.15;;
37595;SDS011;23442;48.182;11.552;2022-10-16T15:48:09;5.63;;;3.00;;
37595;SDS011;23442;48.182;11.552;2022-10-16T15:50:37;5.05;;;2.65;;
37595;SDS011;23442;48.182;11.552;2022-10-16T15:53:03;7.00;;;3.20;;
37595;SDS011;23442;48.182;11.552;2022-10-16T15:55:29;7.15;;;2.70;;
37595;SDS011;23442;48.182;11.552;2022-10-16T15:57:56;6.95;;;3.10;;
37595;SDS011;23442;48.182;11.552;2022-10-16T16:00:22;5.97;;;3.05;;
37595;SDS011;23442;48.182;11.552;2022-10-16T16:02:51;6.47;;;2.53;;
37595;SDS011;23442;48.182;11.552;2022-10-16T16:05:20;6.07;;;2.47;;
37595;SDS011;23442;48.182;11.552;2022-10-16T16:07:47;7.75;;;2.88;;
37595;SDS011;23442;48.182;11.552;2022-10-16T16:10:16;6.00;;;2.65;;
37595;SDS011;23442;48.182;11.552;2022-10-16T16:12:42;4.70;;;1.75;;
37595;SDS011;23442;48.182;11.552;2022-10-16T16:15:08;4.43;;;2.42;;
37595;SDS011;23442;48.182;11.552;2022-10-16T16:17:35;10.18;;;3.35;;
37595;SDS011;23442;48.182;11.552;2022-10-16T16:20:02;6.85;;;3.13;;
37595;SDS011;23442;48.182;11.552;2022-10-16T16:22:29;5.93;;;3.00;;
37595;SDS011;23442;48.182;11.552;2022-10-16T16:24:55;5.90;;;3.00;;
37595;SDS011;23442;48.182;11.552;2022-10-16T16:27:21;8.05;;;3.35;;
37595;SDS011;23442;48.182;11.552;2022-10-16T16:29:49;7.90;;;2.90;;
37595;SDS011;23442;48.182;11.552;2022-10-16T16:32:15;6.28;;;3.60;;
37595;SDS011;23442;48.182;11.552;2022-10-16T16:34:41;7.68;;;4.07;;
37595;SDS011;23442;48.182;11.552;2022-10-16T16:37:07;6.45;;;3.58;;
37595;SDS011;23442;48.182;11.552;2022-10-16T16:39:34;6.53;;;3.08;;
37595;SDS011;23442;48.182;11.552;2022-10-16T16:42:00;6.07;;;3.22;;
37595;SDS011;23442;48.182;11.552;2022-10-16T16:44:27;5.68;;;3.10;;
37595;SDS011;23442;48.182;11.552;2022-10-16T16:46:54;7.38;;;3.50;;
37595;SDS011;23442;48.182;11.552;2022-10-16T16:49:20;6.65;;;3.08;;
37595;SDS011;23442;48.182;11.552;2022-10-16T16:51:46;7.70;;;3.35;;
37595;SDS011;23442;48.182;11.552;2022-10-16T16:54:12;8.88;;;3.72;;
37595;SDS011;23442;48.182;11.552;2022-10-16T16:56:38;10.43;;;3.65;;
37595;SDS011;23442;48.182;11.552;2022-10-16T16:59:15;6.30;;;3.40;;